Time;durP1;ratioP1;P1;durP2;ratioP2;P2;SDS_P1;SDS_P2;PMS_P1;PMS_P2;Temp;Humidity;BMP_temperature;BMP_pressure;BME280_temperature;BME280_humidity;BME280_pressure;Samples;Min_cycle;Max_cycle;Signal;HPM_P1;HPM_P2
2023/07/31 00:00:13;;;;;;;20.13;7.28;;;19.40;99.90;;;;;;4954103;28;20384;-70
2023/07/31 00:02:39;;;;;;;17.10;6.78;;;19.30;99.90;;;;;;4954151;29;20074;-69
2023/07/31 00:05:05;;;;;;;17.33;7.10;;;19.30;99.90;;;;;;4954365;28;20042;-69
2023/07/31 00:07:32;;;;;;;20.42;7.32;;;19.30;99.90;;;;;;4934605;29;20063;-69
2023/07/31 00:09:57;;;;;;;17.55;6.60;;;19.30;99.90;;;;;;4934227;29;20027;-70
2023/07/31 00:12:23;;;;;;;22.58;7.30;;;19.30;99.90;;;;;;4951866;29;20495;-69
2023/07/31 00:14:49;;;;;;;17.05;7.13;;;19.30;99.90;;;;;;4955033;28;20106;-69
2023/07/31 00:17:18;;;;;;;23.02;7.30;;;19.40;99.90;;;;;;4953551;28;20380;-70
2023/07/31 00:19:45;;;;;;;22.30;6.43;;;19.30;99.90;;;;;;4940877;28;20542;-69
2023/07/31 00:22:11;;;;;;;15.10;5.70;;;19.30;99.90;;;;;;4935659;29;20028;-70
2023/07/31 00:24:37;;;;;;;18.08;6.30;;;19.30;99.90;;;;;;4944999;28;20042;-69
2023/07/31 00:27:03;;;;;;;18.92;6.30;;;19.30;99.90;;;;;;4954781;28;20035;-69
2023/07/31 00:29:29;;;;;;;15.73;5.97;;;19.30;99.90;;;;;;4954691;28;20090;-70
2023/07/31 00:31:54;;;;;;;15.00;6.03;;;19.20;99.90;;;;;;4954878;28;20102;-69
2023/07/31 00:34:20;;;;;;;20.63;6.07;;;19.20;99.90;;;;;;4955037;28;20119;-69
2023/07/31 00:36:46;;;;;;;16.17;6.07;;;19.20;99.90;;;;;;4966514;28;20035;-70
2023/07/31 00:39:11;;;;;;;14.73;6.03;;;19.20;99.90;;;;;;4974291;28;20039;-70
2023/07/31 00:41:37;;;;;;;22.05;6.32;;;19.20;99.90;;;;;;4972833;28;20319;-69
2023/07/31 00:44:03;;;;;;;21.25;6.68;;;19.10;99.90;;;;;;4974010;28;20479;-69
2023/07/31 00:46:28;;;;;;;20.17;5.90;;;19.10;99.90;;;;;;4974069;28;20026;-69
2023/07/31 00:48:54;;;;;;;15.85;6.25;;;19.10;99.90;;;;;;4965202;28;20026;-70
2023/07/31 00:51:20;;;;;;;23.95;5.95;;;19.00;99.90;;;;;;4954410;28;20030;-69
2023/07/31 00:53:47;;;;;;;13.65;5.45;;;19.10;99.90;;;;;;4954609;28;20380;-69
2023/07/31 00:56:13;;;;;;;17.60;6.28;;;19.00;99.90;;;;;;4954447;28;20031;-70
2023/07/31 00:58:39;;;;;;;17.08;5.80;;;19.00;99.90;;;;;;4954303;28;20038;-69
2023/07/31 01:01:04;;;;;;;21.95;6.93;;;19.00;99.90;;;;;;4953979;28;20028;-70
2023/07/31 01:03:30;;;;;;;19.33;6.05;;;19.00;99.90;;;;;;4954091;28;20110;-70
2023/07/31 01:06:23;;;;;;;15.07;5.75;;;19.00;99.90;;;;;;4952826;28;20020;-69
2023/07/31 01:09:14;;;;;;;18.10;6.18;;;19.00;99.90;;;;;;4954416;29;20050;-69
2023/07/31 01:11:51;;;;;;;15.55;6.38;;;18.90;99.90;;;;;;4953440;28;20030;-69
2023/07/31 01:14:17;;;;;;;16.95;6.50;;;18.90;99.90;;;;;;4954540;28;20028;-69
2023/07/31 01:16:43;;;;;;;18.20;6.43;;;19.00;99.90;;;;;;4953849;28;20038;-69
2023/07/31 01:19:10;;;;;;;11.73;5.72;;;18.90;99.90;;;;;;4953617;28;20448;-69
2023/07/31 01:21:36;;;;;;;15.45;6.70;;;19.00;99.90;;;;;;4953923;29;20045;-69
2023/07/31 01:24:22;;;;;;;16.25;5.88;;;19.00;99.90;;;;;;4953558;29;20392;-70
2023/07/31 01:27:12;;;;;;;16.08;6.47;;;18.90;99.90;;;;;;4953805;28;20166;-69
2023/07/31 01:29:37;;;;;;;17.70;7.07;;;19.00;99.90;;;;;;4954039;29;20039;-69
2023/07/31 01:32:06;;;;;;;17.88;6.30;;;19.00;99.90;;;;;;4953834;29;20032;-70
2023/07/31 01:34:33;;;;;;;18.30;6.32;;;18.90;99.90;;;;;;4953761;29;20113;-70
2023/07/31 01:36:58;;;;;;;20.00;7.35;;;18.90;99.90;;;;;;4953554;29;20027;-69
2023/07/31 01:39:24;;;;;;;19.85;6.53;;;18.90;99.90;;;;;;4954083;28;20498;-69
2023/07/31 01:41:50;;;;;;;15.60;6.13;;;19.00;99.90;;;;;;4953539;29;20023;-69
2023/07/31 01:44:16;;;;;;;19.67;6.47;;;19.00;99.90;;;;;;4954090;28;20031;-69
2023/07/31 01:46:42;;;;;;;20.48;7.53;;;19.00;99.90;;;;;;4953786;28;20093;-69
2023/07/31 01:49:07;;;;;;;20.40;6.43;;;18.90;99.90;;;;;;4953597;29;20420;-70
2023/07/31 01:51:36;;;;;;;17.67;6.82;;;18.90;99.90;;;;;;4952980;29;20169;-69
2023/07/31 01:54:02;;;;;;;22.42;6.28;;;18.90;99.90;;;;;;4953274;29;20519;-69
2023/07/31 01:56:28;;;;;;;21.55;7.00;;;18.90;99.90;;;;;;4952696;28;20058;-69
2023/07/31 01:58:53;;;;;;;14.77;6.28;;;18.90;99.90;;;;;;4953757;28;20106;-70
2023/07/31 02:01:19;;;;;;;19.00;6.53;;;18.80;99.90;;;;;;4953772;28;20027;-69
2023/07/31 02:03:44;;;;;;;19.27;6.57;;;18.80;99.90;;;;;;4953469;29;20070;-69
2023/07/31 02:06:10;;;;;;;18.83;6.45;;;18.80;99.90;;;;;;4953829;28;20428;-69
2023/07/31 02:08:36;;;;;;;19.33;6.20;;;18.80;99.90;;;;;;4953794;29;20469;-69
2023/07/31 02:11:01;;;;;;;21.08;6.30;;;18.80;99.90;;;;;;4953775;28;20208;-70
2023/07/31 02:13:27;;;;;;;19.30;6.22;;;18.90;99.90;;;;;;4953786;28;20451;-69
2023/07/31 02:15:53;;;;;;;16.83;6.43;;;18.90;99.90;;;;;;4953652;29;20035;-69
2023/07/31 02:18:19;;;;;;;20.85;6.63;;;18.90;99.90;;;;;;4953483;29;20474;-69
2023/07/31 02:20:49;;;;;;;18.83;7.30;;;18.80;99.90;;;;;;4953723;29;20027;-69
2023/07/31 02:23:15;;;;;;;18.75;6.53;;;18.80;99.90;;;;;;4953522;29;20024;-69
2023/07/31 02:25:41;;;;;;;27.40;7.47;;;18.80;99.90;;;;;;4953633;29;20035;-69
2023/07/31 02:28:06;;;;;;;22.10;6.30;;;18.90;99.90;;;;;;4948313;28;20126;-69
2023/07/31 02:30:32;;;;;;;14.38;5.97;;;18.90;99.90;;;;;;4965215;28;20069;-69
2023/07/31 02:32:58;;;;;;;21.38;7.10;;;18.90;99.90;;;;;;4957100;28;20654;-69
2023/07/31 02:35:23;;;;;;;16.80;6.47;;;18.90;99.90;;;;;;4951978;28;20462;-70
2023/07/31 02:37:49;;;;;;;15.20;5.82;;;18.90;99.90;;;;;;4936653;29;20039;-69
2023/07/31 02:40:15;;;;;;;21.17;6.65;;;18.70;99.90;;;;;;4938099;29;20063;-69
2023/07/31 02:42:40;;;;;;;22.90;7.38;;;18.80;99.90;;;;;;4937793;29;20110;-69
2023/07/31 02:45:06;;;;;;;19.00;7.32;;;18.90;99.90;;;;;;4937821;29;20374;-68
2023/07/31 02:47:32;;;;;;;15.23;6.30;;;18.90;99.90;;;;;;4940695;29;20019;-69
2023/07/31 02:49:59;;;;;;;19.15;6.97;;;18.90;99.90;;;;;;4956898;28;20694;-69
2023/07/31 02:52:25;;;;;;;20.38;6.13;;;18.80;99.90;;;;;;4971747;28;20030;-70
2023/07/31 02:54:50;;;;;;;18.23;6.72;;;18.80;99.90;;;;;;4954365;29;20027;-69
2023/07/31 02:57:16;;;;;;;18.35;6.63;;;18.80;99.90;;;;;;4955522;28;20071;-69
2023/07/31 02:59:41;;;;;;;18.00;7.50;;;18.80;99.90;;;;;;4955222;28;20054;-69
2023/07/31 03:02:07;;;;;;;19.60;6.68;;;18.80;99.90;;;;;;4956483;29;20031;-69
2023/07/31 03:04:33;;;;;;;18.52;6.95;;;18.80;99.90;;;;;;4956787;29;20043;-69
2023/07/31 03:06:59;;;;;;;21.50;6.45;;;18.90;99.90;;;;;;4955509;28;20119;-69
2023/07/31 03:09:24;;;;;;;16.65;6.65;;;18.90;99.90;;;;;;4956184;28;20059;-69
2023/07/31 03:11:50;;;;;;;16.10;6.53;;;19.00;99.90;;;;;;4956173;28;20023;-69
2023/07/31 03:14:15;;;;;;;21.15;7.00;;;18.90;99.90;;;;;;4954923;28;20419;-69
2023/07/31 03:16:41;;;;;;;15.80;6.30;;;18.90;99.90;;;;;;4956372;28;20042;-69
2023/07/31 03:19:07;;;;;;;19.95;6.65;;;18.90;99.90;;;;;;4950626;28;20517;-69
2023/07/31 03:21:32;;;;;;;20.77;7.75;;;18.90;99.90;;;;;;4952055;29;20058;-69
2023/07/31 03:23:58;;;;;;;15.77;7.70;;;19.00;99.90;;;;;;4936997;29;20119;-69
2023/07/31 03:26:24;;;;;;;19.40;8.20;;;19.00;99.90;;;;;;4950325;29;20027;-69
2023/07/31 03:28:49;;;;;;;15.70;6.57;;;19.00;99.90;;;;;;4954193;28;20444;-69
2023/07/31 03:31:15;;;;;;;20.13;7.65;;;19.00;99.90;;;;;;4956261;28;20493;-69
2023/07/31 03:33:41;;;;;;;20.02;7.18;;;18.90;99.90;;;;;;4955090;28;20393;-69
2023/07/31 03:36:07;;;;;;;19.90;6.60;;;19.00;99.90;;;;;;4941019;28;20477;-69
2023/07/31 03:38:34;;;;;;;15.63;6.57;;;19.00;99.90;;;;;;4937034;29;20123;-69
2023/07/31 03:41:00;;;;;;;17.20;7.07;;;19.00;99.90;;;;;;4936790;29;20027;-69
2023/07/31 03:43:25;;;;;;;20.77;7.28;;;19.00;99.90;;;;;;4938168;29;20039;-70
2023/07/31 03:45:51;;;;;;;13.15;6.85;;;19.00;99.90;;;;;;4944104;29;20023;-69
2023/07/31 03:48:17;;;;;;;15.55;6.40;;;19.00;99.90;;;;;;4955751;28;20086;-69
2023/07/31 03:50:43;;;;;;;20.95;6.97;;;19.00;99.90;;;;;;4955862;28;20031;-69
2023/07/31 03:53:09;;;;;;;17.50;6.38;;;19.00;99.90;;;;;;4958203;28;20035;-69
2023/07/31 03:55:34;;;;;;;15.90;6.95;;;19.00;99.90;;;;;;4955862;28;20027;-69
2023/07/31 03:58:00;;;;;;;10.80;6.43;;;19.00;99.90;;;;;;4955285;28;20026;-69
2023/07/31 04:00:27;;;;;;;16.95;6.28;;;19.10;99.90;;;;;;4955510;28;20428;-69
2023/07/31 04:02:52;;;;;;;18.50;6.30;;;19.00;99.90;;;;;;4955654;28;20027;-70
2023/07/31 04:05:18;;;;;;;19.10;7.95;;;19.00;99.90;;;;;;4955410;28;20039;-69
2023/07/31 04:07:44;;;;;;;15.45;6.47;;;19.10;99.90;;;;;;4953790;28;20023;-69
2023/07/31 04:10:10;;;;;;;15.82;6.63;;;19.20;99.90;;;;;;4955538;28;20104;-69
2023/07/31 04:12:35;;;;;;;11.98;6.78;;;19.20;99.90;;;;;;4954983;29;20528;-70
2023/07/31 04:15:01;;;;;;;18.83;6.70;;;19.20;99.90;;;;;;4955478;28;20361;-70
2023/07/31 04:17:27;;;;;;;17.10;6.60;;;19.20;99.90;;;;;;4955387;28;20051;-70
2023/07/31 04:19:52;;;;;;;14.15;6.38;;;19.20;99.90;;;;;;4955075;29;20042;-69
2023/07/31 04:22:18;;;;;;;19.40;6.88;;;19.20;99.90;;;;;;4955434;28;20059;-70
2023/07/31 04:24:44;;;;;;;12.90;5.88;;;19.20;99.90;;;;;;4953903;29;20043;-69
2023/07/31 04:27:10;;;;;;;13.63;6.45;;;19.10;99.90;;;;;;4954760;28;20114;-69
2023/07/31 04:29:35;;;;;;;16.65;6.60;;;19.20;99.90;;;;;;4955376;28;20050;-69
2023/07/31 04:32:01;;;;;;;14.65;6.72;;;19.10;99.90;;;;;;4953749;29;20515;-70
2023/07/31 04:34:27;;;;;;;14.82;7.18;;;19.10;99.90;;;;;;4955093;28;20503;-70
2023/07/31 04:36:53;;;;;;;10.90;6.35;;;19.00;99.90;;;;;;4955090;29;20024;-70
2023/07/31 04:39:18;;;;;;;14.57;7.10;;;19.10;99.90;;;;;;4955320;29;20032;-70
2023/07/31 04:41:44;;;;;;;18.00;7.18;;;19.10;99.90;;;;;;4954218;28;20527;-69
2023/07/31 04:44:11;;;;;;;13.48;7.13;;;19.10;99.90;;;;;;4954886;28;20035;-70
2023/07/31 04:46:37;;;;;;;14.35;6.80;;;19.10;99.90;;;;;;4953696;28;20078;-69
2023/07/31 04:49:03;;;;;;;14.48;6.13;;;19.10;99.90;;;;;;4953545;29;20035;-71
2023/07/31 04:51:29;;;;;;;14.88;7.18;;;19.20;99.90;;;;;;4954639;29;20034;-72
2023/07/31 04:53:54;;;;;;;12.82;7.05;;;19.20;99.90;;;;;;4954046;28;20115;-72
2023/07/31 04:56:20;;;;;;;18.05;7.45;;;19.30;99.90;;;;;;4953914;28;20031;-72
2023/07/31 04:58:46;;;;;;;14.77;7.50;;;19.30;99.90;;;;;;4954165;28;20190;-72
2023/07/31 05:01:11;;;;;;;15.63;7.25;;;19.30;99.90;;;;;;4954510;28;20098;-72
2023/07/31 05:03:37;;;;;;;23.90;8.77;;;19.30;99.90;;;;;;4954597;28;20404;-71
2023/07/31 05:06:03;;;;;;;13.25;7.38;;;19.30;99.90;;;;;;4954441;28;20038;-72
2023/07/31 05:08:28;;;;;;;18.05;9.23;;;19.40;99.90;;;;;;4953243;28;20073;-72
2023/07/31 05:10:54;;;;;;;19.42;7.32;;;19.30;99.90;;;;;;4953976;29;20027;-72
2023/07/31 05:13:20;;;;;;;13.20;8.10;;;19.40;99.90;;;;;;4953248;28;20024;-72
2023/07/31 05:15:49;;;;;;;17.30;8.00;;;19.30;99.90;;;;;;4954315;29;20027;-72
2023/07/31 05:18:15;;;;;;;17.27;7.65;;;19.30;99.90;;;;;;4953136;29;20692;-72
2023/07/31 05:20:40;;;;;;;15.65;8.68;;;19.30;99.90;;;;;;4954410;28;20066;-72
2023/07/31 05:23:07;;;;;;;16.92;8.07;;;19.30;99.90;;;;;;4954034;29;20098;-72
2023/07/31 05:25:32;;;;;;;13.00;6.80;;;19.30;99.90;;;;;;4954044;29;20023;-72
2023/07/31 05:27:58;;;;;;;15.05;6.68;;;19.30;99.90;;;;;;4954032;28;20507;-71
2023/07/31 05:30:24;;;;;;;9.98;6.80;;;19.20;99.90;;;;;;4954020;28;20118;-72
2023/07/31 05:32:49;;;;;;;11.30;6.70;;;19.20;99.90;;;;;;4954175;29;20110;-72
2023/07/31 05:35:15;;;;;;;13.07;6.65;;;19.20;99.90;;;;;;4954196;29;20393;-72
2023/07/31 05:37:41;;;;;;;11.75;6.95;;;19.10;99.90;;;;;;4954013;29;20107;-72
2023/07/31 05:40:07;;;;;;;10.55;6.35;;;19.10;99.90;;;;;;4952412;28;20477;-71
2023/07/31 05:42:33;;;;;;;9.75;6.13;;;18.90;99.90;;;;;;4953926;28;20019;-72
2023/07/31 05:44:58;;;;;;;9.30;5.53;;;19.00;99.90;;;;;;4954019;29;20424;-72
2023/07/31 05:47:24;;;;;;;12.68;6.75;;;19.00;99.90;;;;;;4953926;28;20102;-72
2023/07/31 05:49:52;;;;;;;10.88;6.15;;;19.00;99.90;;;;;;4954042;29;20027;-72
2023/07/31 05:52:19;;;;;;;11.32;6.35;;;19.00;99.90;;;;;;4953823;29;20023;-72
2023/07/31 05:54:45;;;;;;;12.55;7.60;;;19.00;99.90;;;;;;4953736;29;20078;-72
2023/07/31 05:57:12;;;;;;;13.95;6.57;;;19.00;99.90;;;;;;4953188;28;20019;-72
2023/07/31 05:59:37;;;;;;;17.63;6.55;;;19.00;99.90;;;;;;4954113;28;20457;-72
2023/07/31 06:02:03;;;;;;;9.88;6.40;;;19.00;99.90;;;;;;4953839;29;20043;-72
2023/07/31 06:04:29;;;;;;;12.15;7.00;;;19.10;99.90;;;;;;4954223;28;20045;-72
2023/07/31 06:06:55;;;;;;;9.23;5.38;;;19.00;99.90;;;;;;4957468;28;20096;-72
2023/07/31 06:09:21;;;;;;;12.35;6.55;;;19.00;99.90;;;;;;4957371;28;20027;-72
2023/07/31 06:11:47;;;;;;;12.68;6.65;;;19.00;99.90;;;;;;4957364;29;20103;-73
2023/07/31 06:14:13;;;;;;;12.50;6.78;;;19.00;99.90;;;;;;4956465;29;20030;-72
2023/07/31 06:16:38;;;;;;;14.35;7.00;;;19.00;99.90;;;;;;4957613;29;20523;-72
2023/07/31 06:19:04;;;;;;;11.07;6.35;;;19.00;99.90;;;;;;4952488;29;20535;-75
2023/07/31 06:21:31;;;;;;;12.18;6.65;;;19.00;99.90;;;;;;4938451;29;20102;-72
2023/07/31 06:23:56;;;;;;;10.65;6.57;;;19.00;99.90;;;;;;4942905;29;20046;-72
2023/07/31 06:26:22;;;;;;;11.68;7.25;;;18.90;99.90;;;;;;4945155;29;20028;-72
2023/07/31 06:28:48;;;;;;;13.15;6.70;;;18.90;99.90;;;;;;4956316;28;20043;-74
2023/07/31 06:31:13;;;;;;;9.20;6.22;;;18.90;99.90;;;;;;4957294;28;20405;-71
2023/07/31 06:33:39;;;;;;;13.48;7.25;;;18.90;99.90;;;;;;4957046;28;20027;-71
2023/07/31 06:36:05;;;;;;;12.85;7.32;;;18.90;99.90;;;;;;4956076;28;20031;-72
2023/07/31 06:38:30;;;;;;;10.50;6.15;;;18.80;99.90;;;;;;4956602;28;20035;-72
2023/07/31 06:40:56;;;;;;;9.80;5.43;;;18.80;99.90;;;;;;4966790;28;20035;-72
2023/07/31 06:43:22;;;;;;;7.53;5.40;;;18.80;99.90;;;;;;4956858;28;20035;-72
2023/07/31 06:45:50;;;;;;;8.18;5.40;;;18.70;99.90;;;;;;4956848;28;20035;-72
2023/07/31 06:48:16;;;;;;;8.68;5.78;;;18.70;99.90;;;;;;4956777;28;20070;-72
2023/07/31 06:50:42;;;;;;;8.77;5.43;;;18.80;99.90;;;;;;4943753;28;20031;-70
2023/07/31 06:53:08;;;;;;;9.25;5.45;;;18.80;99.90;;;;;;4937415;29;20110;-71
2023/07/31 06:55:33;;;;;;;8.88;5.03;;;18.80;99.90;;;;;;4937373;29;20388;-72
2023/07/31 06:57:59;;;;;;;11.10;5.80;;;18.80;99.90;;;;;;4937407;29;20107;-72
2023/07/31 07:00:25;;;;;;;10.23;5.57;;;18.70;99.90;;;;;;4966371;28;20066;-72
2023/07/31 07:02:51;;;;;;;9.70;5.35;;;18.90;99.90;;;;;;4955023;28;20121;-73
2023/07/31 07:05:17;;;;;;;9.43;5.30;;;18.90;99.90;;;;;;4956607;28;20039;-73
2023/07/31 07:07:43;;;;;;;8.75;5.60;;;18.90;99.90;;;;;;4940846;28;20051;-74
2023/07/31 07:10:10;;;;;;;7.78;5.88;;;19.00;99.90;;;;;;4944836;28;20036;-72
2023/07/31 07:12:36;;;;;;;8.00;5.65;;;19.00;99.90;;;;;;4928250;28;20024;-73
2023/07/31 07:15:02;;;;;;;7.70;5.60;;;18.90;99.90;;;;;;4933446;28;20027;-72
2023/07/31 07:17:31;;;;;;;8.40;5.38;;;18.80;99.90;;;;;;4948322;28;20046;-73
2023/07/31 07:19:57;;;;;;;8.10;5.20;;;18.80;99.90;;;;;;4949959;28;20444;-72
2023/07/31 07:22:23;;;;;;;11.40;4.85;;;18.90;99.90;;;;;;4949027;28;20027;-72
2023/07/31 07:24:48;;;;;;;9.95;6.28;;;18.80;99.90;;;;;;4949614;28;20031;-72
2023/07/31 07:27:14;;;;;;;9.27;6.10;;;18.80;99.90;;;;;;4950189;28;20080;-72
2023/07/31 07:29:40;;;;;;;9.38;4.88;;;18.80;99.90;;;;;;4950197;28;20042;-72
2023/07/31 07:32:06;;;;;;;7.10;5.20;;;18.70;99.90;;;;;;4950940;28;20473;-73
2023/07/31 07:34:32;;;;;;;8.73;4.80;;;18.70;99.90;;;;;;4949629;28;20432;-72
2023/07/31 07:36:57;;;;;;;9.70;5.35;;;18.60;99.90;;;;;;4950025;28;20106;-72
2023/07/31 07:39:23;;;;;;;12.68;5.20;;;18.50;99.90;;;;;;4950479;28;20159;-72
2023/07/31 07:41:49;;;;;;;9.25;4.82;;;18.40;99.90;;;;;;4949657;28;20031;-72
2023/07/31 07:44:15;;;;;;;8.88;5.05;;;18.60;99.90;;;;;;4949710;28;20190;-72
2023/07/31 07:46:41;;;;;;;7.93;4.80;;;18.60;99.90;;;;;;4950271;28;20081;-71
2023/07/31 07:49:07;;;;;;;11.45;5.05;;;18.70;99.90;;;;;;4950074;28;20023;-71
2023/07/31 07:51:32;;;;;;;9.35;5.35;;;18.70;99.90;;;;;;4949582;28;20050;-71
2023/07/31 07:53:58;;;;;;;9.05;5.55;;;18.70;99.90;;;;;;4947084;28;20698;-72
2023/07/31 07:56:26;;;;;;;12.32;6.65;;;18.70;99.90;;;;;;4947847;28;20094;-70
2023/07/31 07:58:52;;;;;;;11.65;6.38;;;18.80;99.90;;;;;;4945769;28;20031;-71
2023/07/31 08:01:17;;;;;;;7.53;5.80;;;18.80;99.90;;;;;;4949844;28;20028;-71
2023/07/31 08:03:43;;;;;;;9.52;4.88;;;18.90;99.90;;;;;;4949150;28;20035;-69
2023/07/31 08:06:09;;;;;;;12.38;5.85;;;18.80;99.90;;;;;;4949336;28;20486;-72
2023/07/31 08:08:38;;;;;;;12.85;5.85;;;18.80;99.90;;;;;;4950514;28;20038;-72
2023/07/31 08:11:04;;;;;;;13.30;5.65;;;18.80;99.90;;;;;;4948586;28;20649;-72
2023/07/31 08:13:30;;;;;;;13.43;5.80;;;18.80;99.90;;;;;;4948820;28;20033;-72
2023/07/31 08:15:56;;;;;;;13.13;5.25;;;18.90;99.90;;;;;;4949537;28;20031;-72
2023/07/31 08:18:22;;;;;;;9.02;6.10;;;18.90;99.90;;;;;;4949199;28;20038;-72
2023/07/31 08:20:47;;;;;;;13.43;6.13;;;19.00;99.90;;;;;;4946791;28;20763;-73
2023/07/31 08:23:13;;;;;;;11.38;6.30;;;19.00;99.90;;;;;;4948971;29;20027;-72
2023/07/31 08:25:39;;;;;;;14.75;5.72;;;19.00;99.90;;;;;;4948790;28;20031;-72
2023/07/31 08:28:06;;;;;;;13.38;6.35;;;19.00;99.90;;;;;;4948395;28;20039;-73
2023/07/31 08:30:33;;;;;;;13.52;6.10;;;19.00;99.90;;;;;;4949014;28;20481;-73
2023/07/31 08:33:00;;;;;;;11.65;5.80;;;19.10;99.90;;;;;;4948824;28;20023;-73
2023/07/31 08:35:27;;;;;;;9.07;5.97;;;19.00;99.90;;;;;;4948925;28;20505;-72
2023/07/31 08:37:53;;;;;;;13.98;6.97;;;19.10;99.90;;;;;;4948936;28;20027;-73
2023/07/31 08:40:19;;;;;;;11.70;5.93;;;19.10;99.90;;;;;;4948991;28;20096;-72
2023/07/31 08:42:46;;;;;;;9.80;5.75;;;19.10;99.90;;;;;;4948534;28;20089;-72
2023/07/31 08:45:17;;;;;;;10.45;5.85;;;19.10;99.90;;;;;;4948477;28;20035;-73
2023/07/31 08:47:45;;;;;;;9.95;5.43;;;19.10;99.90;;;;;;4947486;28;20078;-71
2023/07/31 08:50:15;;;;;;;9.38;5.35;;;19.10;99.90;;;;;;4947257;28;20102;-71
2023/07/31 08:52:41;;;;;;;11.57;5.32;;;19.10;99.90;;;;;;4948198;28;20044;-71
2023/07/31 08:55:08;;;;;;;9.98;5.63;;;19.10;99.90;;;;;;4947232;28;20011;-72
2023/07/31 08:57:38;;;;;;;9.70;5.28;;;19.10;99.90;;;;;;4948093;28;20027;-72
2023/07/31 09:00:12;;;;;;;8.77;5.22;;;19.20;99.90;;;;;;5125158;27;20111;-71
2023/07/31 09:02:45;;;;;;;11.15;5.88;;;19.10;99.90;;;;;;5124020;27;20039;-72
2023/07/31 09:05:11;;;;;;;11.20;5.90;;;19.30;99.90;;;;;;5106182;27;20505;-71
2023/07/31 09:07:38;;;;;;;10.88;5.90;;;19.30;99.90;;;;;;5124443;27;20480;-71
2023/07/31 09:10:04;;;;;;;8.65;5.43;;;19.30;99.90;;;;;;5125525;27;20019;-71
2023/07/31 09:12:31;;;;;;;13.98;5.97;;;19.40;99.90;;;;;;5122487;27;20023;-71
2023/07/31 09:14:58;;;;;;;9.50;5.13;;;19.40;99.90;;;;;;5124294;27;20027;-72
2023/07/31 09:17:38;;;;;;;12.00;6.07;;;19.50;99.90;;;;;;5123529;27;20076;-72
2023/07/31 09:20:31;;;;;;;11.55;5.07;;;19.60;99.90;;;;;;5121639;27;20057;-72
2023/07/31 09:23:04;;;;;;;;;;;19.50;99.90;;;;;;5121219;27;20075;-69
2023/07/31 09:25:30;;;;;;;;;;;19.50;99.90;;;;;;5124110;27;19923;-70
2023/07/31 09:28:04;;;;;;;9.23;5.00;;;19.50;99.90;;;;;;5124281;27;19915;-71
2023/07/31 09:30:30;;;;;;;9.75;4.82;;;19.80;99.90;;;;;;5124483;27;20047;-70
2023/07/31 09:33:06;;;;;;;7.60;5.13;;;19.80;99.90;;;;;;5124616;27;20579;-71
2023/07/31 09:35:37;;;;;;;8.40;4.88;;;19.90;99.90;;;;;;5123567;27;20023;-70
2023/07/31 09:38:09;;;;;;;9.98;5.25;;;19.90;99.90;;;;;;5123679;27;20035;-70
2023/07/31 09:40:37;;;;;;;7.95;4.55;;;19.90;99.90;;;;;;5123303;27;20106;-70
2023/07/31 09:43:08;;;;;;;9.60;4.65;;;20.00;99.90;;;;;;5123227;27;20065;-71
2023/07/31 09:45:39;;;;;;;8.77;4.38;;;20.10;99.90;;;;;;5122631;27;20027;-70
2023/07/31 09:48:10;;;;;;;8.17;5.10;;;20.20;99.90;;;;;;5123274;27;20019;-70
2023/07/31 09:50:45;;;;;;;11.40;4.72;;;20.20;99.90;;;;;;5122947;27;20352;-70
2023/07/31 09:53:11;;;;;;;10.30;4.88;;;20.20;99.90;;;;;;5122643;27;20059;-69
2023/07/31 09:55:38;;;;;;;11.80;5.22;;;20.20;99.90;;;;;;5122866;27;20480;-70
2023/07/31 09:58:11;;;;;;;6.35;4.65;;;20.30;99.90;;;;;;5122514;27;20126;-70
2023/07/31 10:00:38;;;;;;;28.00;6.20;;;20.30;99.90;;;;;;5123047;27;20031;-69
2023/07/31 10:03:09;;;;;;;6.97;3.90;;;20.30;99.90;;;;;;5123521;27;20047;-70
2023/07/31 10:05:39;;;;;;;4.65;3.50;;;20.30;99.90;;;;;;5122932;27;20027;-70
2023/07/31 10:08:09;;;;;;;9.38;4.50;;;20.20;99.90;;;;;;5123143;27;20042;-70
2023/07/31 10:10:37;;;;;;;19.38;5.30;;;20.20;99.90;;;;;;5115773;27;20059;-70
2023/07/31 10:13:04;;;;;;;9.85;4.45;;;20.20;99.90;;;;;;5108581;27;20044;-69
2023/07/31 10:15:31;;;;;;;8.35;3.83;;;20.30;99.90;;;;;;5109426;27;20028;-70
2023/07/31 10:17:58;;;;;;;7.60;4.03;;;20.40;99.90;;;;;;5109239;27;20015;-71
2023/07/31 10:20:25;;;;;;;4.43;3.85;;;20.40;99.90;;;;;;5107519;27;20027;-71
2023/07/31 10:22:51;;;;;;;4.78;3.53;;;20.30;99.90;;;;;;5109856;27;20032;-73
2023/07/31 10:25:19;;;;;;;6.72;4.00;;;20.30;99.90;;;;;;5110318;27;20020;-73
2023/07/31 10:28:20;;;;;;;7.35;3.47;;;20.40;99.90;;;;;;5104244;27;20015;-72
2023/07/31 10:30:46;;;;;;;6.38;3.35;;;20.40;99.90;;;;;;5100822;27;20111;-72
2023/07/31 10:33:12;;;;;;;6.15;4.22;;;20.30;99.90;;;;;;5108977;27;21129;-72
2023/07/31 10:35:37;;;;;;;5.38;3.35;;;20.30;99.90;;;;;;5109540;27;20111;-72
2023/07/31 10:38:14;;;;;;;6.82;4.03;;;20.30;99.90;;;;;;5105177;27;20035;-72
2023/07/31 10:40:40;;;;;;;5.07;3.65;;;20.20;99.90;;;;;;5107452;27;20039;-73
2023/07/31 10:43:08;;;;;;;5.72;3.55;;;20.20;99.90;;;;;;5109325;27;20026;-73
2023/07/31 10:45:39;;;;;;;6.40;3.83;;;20.20;99.90;;;;;;5109159;27;20027;-73
2023/07/31 10:48:06;;;;;;;7.43;3.97;;;20.30;99.90;;;;;;5107509;27;20028;-73
2023/07/31 10:50:36;;;;;;;5.05;4.18;;;20.20;99.90;;;;;;5108408;27;20031;-72
2023/07/31 10:53:03;;;;;;;5.97;4.18;;;20.30;99.90;;;;;;5107438;27;20099;-72
2023/07/31 10:55:43;;;;;;;7.15;3.75;;;20.30;99.90;;;;;;5108660;27;20053;-72
2023/07/31 10:58:11;;;;;;;7.68;4.32;;;20.40;99.90;;;;;;5107138;27;20110;-72
2023/07/31 11:00:41;;;;;;;8.10;4.57;;;20.40;99.90;;;;;;5107235;27;20020;-73
2023/07/31 11:03:18;;;;;;;6.45;4.18;;;20.50;99.90;;;;;;5109448;27;20019;-73
2023/07/31 11:06:28;;;;;;;7.82;4.15;;;20.50;99.90;;;;;;5108416;28;20654;-73
2023/07/31 11:08:54;;;;;;;8.25;3.90;;;20.60;99.90;;;;;;5102511;27;20059;-72
2023/07/31 11:11:21;;;;;;;5.15;3.60;;;20.70;99.90;;;;;;5109415;27;20054;-73
2023/07/31 11:13:50;;;;;;;11.25;3.70;;;20.60;99.90;;;;;;5107251;27;20108;-73
2023/07/31 11:16:17;;;;;;;6.32;3.58;;;20.70;99.90;;;;;;5108807;27;20028;-72
2023/07/31 11:18:44;;;;;;;4.68;3.30;;;20.60;99.90;;;;;;5107214;28;20396;-72
2023/07/31 11:21:18;;;;;;;6.20;3.28;;;20.70;99.90;;;;;;5107102;27;20065;-73
2023/07/31 11:23:53;;;;;;;10.35;3.92;;;20.70;99.90;;;;;;5108078;27;20481;-72
2023/07/31 11:26:20;;;;;;;6.82;3.60;;;20.70;99.90;;;;;;5107329;27;20103;-73
2023/07/31 11:28:49;;;;;;;5.43;3.30;;;20.80;99.90;;;;;;5106934;27;20012;-73
2023/07/31 11:31:16;;;;;;;5.25;3.20;;;20.80;99.90;;;;;;5108987;27;20098;-73
2023/07/31 11:33:42;;;;;;;6.38;3.42;;;20.80;99.90;;;;;;5108255;27;20425;-74
2023/07/31 11:36:18;;;;;;;4.93;3.22;;;20.80;99.90;;;;;;5105705;27;20522;-72
2023/07/31 11:38:44;;;;;;;4.28;3.17;;;20.80;99.90;;;;;;5108078;27;20040;-73
2023/07/31 11:41:10;;;;;;;6.20;3.53;;;20.90;99.90;;;;;;5107726;27;20012;-73
2023/07/31 11:43:38;;;;;;;4.85;3.35;;;20.80;99.90;;;;;;5106867;27;20070;-73
2023/07/31 11:46:06;;;;;;;4.28;3.15;;;20.90;99.90;;;;;;5107876;27;20023;-72
2023/07/31 11:48:35;;;;;;;6.05;3.75;;;20.90;99.90;;;;;;5108057;27;20051;-73
2023/07/31 11:51:06;;;;;;;5.80;4.13;;;20.80;99.90;;;;;;5107615;27;20464;-74
2023/07/31 11:53:35;;;;;;;7.03;3.67;;;20.90;99.90;;;;;;5104984;28;20026;-73
2023/07/31 11:56:04;;;;;;;6.60;3.90;;;21.00;99.90;;;;;;5107334;27;20034;-74
2023/07/31 11:58:31;;;;;;;6.80;3.97;;;21.00;99.90;;;;;;5104873;28;20574;-73
2023/07/31 12:00:58;;;;;;;7.35;4.80;;;21.00;99.90;;;;;;5106849;27;20019;-74
2023/07/31 12:03:24;;;;;;;7.60;4.10;;;21.00;99.90;;;;;;5104674;28;20037;-73
2023/07/31 12:05:50;;;;;;;7.60;4.55;;;21.00;99.90;;;;;;5105350;28;20035;-73
2023/07/31 12:08:16;;;;;;;11.73;4.88;;;21.10;99.90;;;;;;5106756;27;20496;-73
2023/07/31 12:10:42;;;;;;;6.38;3.92;;;21.10;99.90;;;;;;5106163;27;20020;-74
2023/07/31 12:13:24;;;;;;;6.97;4.45;;;21.10;99.90;;;;;;5107685;27;20030;-73
2023/07/31 12:15:56;;;;;;;10.60;4.90;;;21.10;99.90;;;;;;5107051;27;20019;-73
2023/07/31 12:18:22;;;;;;;9.82;5.50;;;21.10;99.90;;;;;;5107353;27;20035;-73
2023/07/31 12:20:53;;;;;;;10.75;4.38;;;21.20;99.90;;;;;;5107230;27;20023;-73
2023/07/31 12:23:27;;;;;;;10.45;5.55;;;21.20;99.90;;;;;;5106007;27;20388;-74
2023/07/31 12:26:08;;;;;;;7.30;5.93;;;21.30;99.90;;;;;;5107193;27;20022;-73
2023/07/31 12:28:40;;;;;;;9.75;5.82;;;21.10;99.90;;;;;;5107057;27;20031;-73
2023/07/31 12:31:07;;;;;;;10.10;5.55;;;21.20;99.90;;;;;;5107533;28;20024;-73
2023/07/31 12:33:34;;;;;;;7.15;5.10;;;21.20;99.90;;;;;;5106128;28;20032;-72
2023/07/31 12:36:06;;;;;;;7.50;5.60;;;21.20;99.90;;;;;;5106139;28;20036;-73
2023/07/31 12:38:33;;;;;;;9.63;5.07;;;21.20;99.90;;;;;;5106725;27;20080;-73
2023/07/31 12:40:58;;;;;;;9.90;5.05;;;21.30;99.90;;;;;;5105525;28;20108;-74